sensor_id;sensor_type;location;lat;lon;timestamp;pressure;altitude;pressure_sealevel;temperature;humidity
6132;BME280;3097;42.692;23.278;2023-05-23T00:00:22;94886.34;;;13.75;100.00
6132;BME280;3097;42.692;23.278;2023-05-23T00:02:47;94871.22;;;13.67;100.00
6132;BME280;3097;42.692;23.278;2023-05-23T00:05:13;94869.41;;;13.67;100.00
6132;BME280;3097;42.692;23.278;2023-05-23T00:07:42;94855.84;;;13.60;100.00
6132;BME280;3097;42.692;23.278;2023-05-23T00:10:08;94875.84;;;13.65;100.00
6132;BME280;3097;42.692;23.278;2023-05-23T00:12:34;94881.50;;;13.62;100.00
6132;BME280;3097;42.692;23.278;2023-05-23T00:15:02;94878.13;;;13.61;100.00
6132;BME280;3097;42.692;23.278;2023-05-23T00:17:28;94878.97;;;13.67;100.00
6132;BME280;3097;42.692;23.278;2023-05-23T00:19:53;94874.50;;;13.62;100.00
6132;BME280;3097;42.692;23.278;2023-05-23T00:22:20;94874.28;;;13.64;100.00
6132;BME280;3097;42.692;23.278;2023-05-23T00:24:46;94877.09;;;13.62;100.00
6132;BME280;3097;42.692;23.278;2023-05-23T00:27:11;94862.69;;;13.49;100.00
6132;BME280;3097;42.692;23.278;2023-05-23T00:29:36;94863.47;;;13.50;100.00
6132;BME280;3097;42.692;23.278;2023-05-23T00:32:02;94863.31;;;13.56;100.00
6132;BME280;3097;42.692;23.278;2023-05-23T00:34:27;94872.81;;;13.51;100.00
6132;BME280;3097;42.692;23.278;2023-05-23T00:36:53;94870.22;;;13.51;99.85
6132;BME280;3097;42.692;23.278;2023-05-23T00:39:18;94874.31;;;13.47;99.80
6132;BME280;3097;42.692;23.278;2023-05-23T00:41:50;94874.78;;;13.44;100.00
6132;BME280;3097;42.692;23.278;2023-05-23T00:44:16;94868.03;;;13.43;100.00
6132;BME280;3097;42.692;23.278;2023-05-23T00:46:44;94874.19;;;13.37;100.00
6132;BME280;3097;42.692;23.278;2023-05-23T00:49:11;94867.13;;;13.32;100.00
6132;BME280;3097;42.692;23.278;2023-05-23T00:51:37;94868.69;;;13.33;100.00
6132;BME280;3097;42.692;23.278;2023-05-23T00:54:06;94873.84;;;13.33;100.00
6132;BME280;3097;42.692;23.278;2023-05-23T00:56:31;94869.25;;;13.35;99.85
6132;BME280;3097;42.692;23.278;2023-05-23T00:58:58;94869.19;;;13.30;100.00
6132;BME280;3097;42.692;23.278;2023-05-23T01:01:25;94875.91;;;13.31;100.00
6132;BME280;3097;42.692;23.278;2023-05-23T01:03:51;94832.53;;;13.05;99.66
6132;BME280;3097;42.692;23.278;2023-05-23T01:06:17;94870.97;;;13.30;98.97
6132;BME280;3097;42.692;23.278;2023-05-23T01:08:43;94879.38;;;13.20;98.84
6132;BME280;3097;42.692;23.278;2023-05-23T01:11:29;94876.94;;;13.13;99.87
6132;BME280;3097;42.692;23.278;2023-05-23T01:14:04;94875.94;;;13.14;99.97
6132;BME280;3097;42.692;23.278;2023-05-23T01:16:38;94879.41;;;13.08;100.00
6132;BME280;3097;42.692;23.278;2023-05-23T01:21:54;94863.97;;;12.97;99.71
6132;BME280;3097;42.692;23.278;2023-05-23T01:24:40;94882.25;;;13.07;99.91
6132;BME280;3097;42.692;23.278;2023-05-23T01:29:45;94873.00;;;12.94;100.00
6132;BME280;3097;42.692;23.278;2023-05-23T01:32:14;94875.56;;;12.94;100.00
6132;BME280;3097;42.692;23.278;2023-05-23T01:34:41;94848.44;;;12.80;100.00
6132;BME280;3097;42.692;23.278;2023-05-23T01:37:08;94869.88;;;12.92;100.00
6132;BME280;3097;42.692;23.278;2023-05-23T01:39:39;94863.03;;;12.86;100.00
6132;BME280;3097;42.692;23.278;2023-05-23T01:42:05;94861.00;;;12.88;99.89
6132;BME280;3097;42.692;23.278;2023-05-23T01:44:33;94866.00;;;12.95;99.62
6132;BME280;3097;42.692;23.278;2023-05-23T01:47:01;94868.69;;;12.83;100.00
6132;BME280;3097;42.692;23.278;2023-05-23T01:49:29;94875.19;;;12.86;99.69
6132;BME280;3097;42.692;23.278;2023-05-23T01:51:55;94866.34;;;12.82;99.91
6132;BME280;3097;42.692;23.278;2023-05-23T01:54:21;94856.00;;;12.82;100.00
6132;BME280;3097;42.692;23.278;2023-05-23T01:56:47;94848.69;;;12.78;99.55
6132;BME280;3097;42.692;23.278;2023-05-23T01:59:13;94857.72;;;12.76;98.54
6132;BME280;3097;42.692;23.278;2023-05-23T02:01:38;94860.69;;;12.68;99.20
6132;BME280;3097;42.692;23.278;2023-05-23T02:04:03;94859.81;;;12.62;100.00
6132;BME280;3097;42.692;23.278;2023-05-23T02:06:29;94857.69;;;12.59;99.82
6132;BME280;3097;42.692;23.278;2023-05-23T02:08:56;94853.88;;;12.62;99.96
6132;BME280;3097;42.692;23.278;2023-05-23T02:11:21;94863.81;;;12.53;99.40
6132;BME280;3097;42.692;23.278;2023-05-23T02:13:47;94864.25;;;12.50;99.84
6132;BME280;3097;42.692;23.278;2023-05-23T02:16:12;94842.63;;;12.39;100.00
6132;BME280;3097;42.692;23.278;2023-05-23T02:18:38;94851.19;;;12.40;100.00
6132;BME280;3097;42.692;23.278;2023-05-23T02:21:06;94867.31;;;12.47;99.64
6132;BME280;3097;42.692;23.278;2023-05-23T02:23:32;94850.94;;;12.41;99.86
6132;BME280;3097;42.692;23.278;2023-05-23T02:25:57;94856.19;;;12.47;100.00
6132;BME280;3097;42.692;23.278;2023-05-23T02:28:22;94841.84;;;12.39;99.82
6132;BME280;3097;42.692;23.278;2023-05-23T02:30:48;94852.34;;;12.49;99.71
6132;BME280;3097;42.692;23.278;2023-05-23T02:33:13;94849.91;;;12.43;99.70
6132;BME280;3097;42.692;23.278;2023-05-23T02:35:41;94849.28;;;12.35;100.00
6132;BME280;3097;42.692;23.278;2023-05-23T02:38:06;94853.88;;;12.33;100.00
6132;BME280;3097;42.692;23.278;2023-05-23T02:40:31;94854.13;;;12.32;99.90
6132;BME280;3097;42.692;23.278;2023-05-23T02:42:57;94850.06;;;12.36;99.89
6132;BME280;3097;42.692;23.278;2023-05-23T02:45:22;94815.88;;;12.17;99.54
6132;BME280;3097;42.692;23.278;2023-05-23T02:47:48;94831.78;;;12.26;99.42
6132;BME280;3097;42.692;23.278;2023-05-23T02:50:14;94840.09;;;12.28;99.51
6132;BME280;3097;42.692;23.278;2023-05-23T02:52:40;94848.19;;;12.31;99.80
6132;BME280;3097;42.692;23.278;2023-05-23T02:55:07;94848.19;;;12.31;99.53
6132;BME280;3097;42.692;23.278;2023-05-23T02:57:33;94846.06;;;12.28;99.69
6132;BME280;3097;42.692;23.278;2023-05-23T02:59:58;94851.00;;;12.30;99.39
6132;BME280;3097;42.692;23.278;2023-05-23T03:02:23;94860.31;;;12.31;99.08
6132;BME280;3097;42.692;23.278;2023-05-23T03:04:49;94854.59;;;12.29;99.41
6132;BME280;3097;42.692;23.278;2023-05-23T03:07:15;94855.94;;;12.31;100.00
6132;BME280;3097;42.692;23.278;2023-05-23T03:09:40;94859.06;;;12.33;100.00
6132;BME280;3097;42.692;23.278;2023-05-23T03:12:06;94854.28;;;12.42;100.00
6132;BME280;3097;42.692;23.278;2023-05-23T03:14:31;94843.56;;;12.50;100.00
6132;BME280;3097;42.692;23.278;2023-05-23T03:16:57;94856.06;;;12.53;100.00
6132;BME280;3097;42.692;23.278;2023-05-23T03:19:22;94862.31;;;12.57;100.00
6132;BME280;3097;42.692;23.278;2023-05-23T03:21:48;94821.25;;;12.44;100.00
6132;BME280;3097;42.692;23.278;2023-05-23T03:24:15;94850.34;;;12.68;100.00
6132;BME280;3097;42.692;23.278;2023-05-23T03:26:40;94868.53;;;12.73;100.00
6132;BME280;3097;42.692;23.278;2023-05-23T03:29:06;94862.66;;;12.77;100.00
6132;BME280;3097;42.692;23.278;2023-05-23T03:31:31;94867.91;;;12.83;100.00
6132;BME280;3097;42.692;23.278;2023-05-23T03:33:56;94872.19;;;12.94;100.00
6132;BME280;3097;42.692;23.278;2023-05-23T03:36:22;94857.06;;;12.86;100.00
6132;BME280;3097;42.692;23.278;2023-05-23T03:38:51;94870.78;;;13.03;100.00
6132;BME280;3097;42.692;23.278;2023-05-23T03:41:17;94864.16;;;13.07;100.00
6132;BME280;3097;42.692;23.278;2023-05-23T03:43:43;94882.44;;;13.17;100.00
6132;BME280;3097;42.692;23.278;2023-05-23T03:46:08;94885.63;;;13.24;100.00
6132;BME280;3097;42.692;23.278;2023-05-23T03:48:36;94871.28;;;13.33;100.00
6132;BME280;3097;42.692;23.278;2023-05-23T03:51:02;94879.88;;;13.39;100.00
6132;BME280;3097;42.692;23.278;2023-05-23T03:53:27;94878.63;;;13.41;100.00
6132;BME280;3097;42.692;23.278;2023-05-23T03:55:53;94891.41;;;13.48;100.00
6132;BME280;3097;42.692;23.278;2023-05-23T03:58:19;94896.13;;;13.51;100.00
6132;BME280;3097;42.692;23.278;2023-05-23T04:00:45;94885.44;;;13.47;100.00
6132;BME280;3097;42.692;23.278;2023-05-23T04:03:13;94886.78;;;13.50;100.00
6132;BME280;3097;42.692;23.278;2023-05-23T04:05:39;94886.84;;;13.55;100.00
6132;BME280;3097;42.692;23.278;2023-05-23T04:08:05;94866.34;;;13.53;100.00
6132;BME280;3097;42.692;23.278;2023-05-23T04:10:30;94885.13;;;13.61;100.00
6132;BME280;3097;42.692;23.278;2023-05-23T04:12:56;94877.88;;;13.63;100.00
6132;BME280;3097;42.692;23.278;2023-05-23T04:15:22;94884.44;;;13.70;100.00
6132;BME280;3097;42.692;23.278;2023-05-23T04:17:49;94890.75;;;13.74;100.00
6132;BME280;3097;42.692;23.278;2023-05-23T04:20:15;94869.03;;;13.59;100.00
6132;BME280;3097;42.692;23.278;2023-05-23T04:22:42;94873.25;;;13.65;100.00
6132;BME280;3097;42.692;23.278;2023-05-23T04:25:08;94880.38;;;13.74;100.00
6132;BME280;3097;42.692;23.278;2023-05-23T04:27:34;94874.47;;;13.79;100.00
6132;BME280;3097;42.692;23.278;2023-05-23T04:30:00;94873.72;;;13.83;100.00
6132;BME280;3097;42.692;23.278;2023-05-23T04:32:26;94862.75;;;13.76;100.00
6132;BME280;3097;42.692;23.278;2023-05-23T04:34:52;94879.69;;;13.84;100.00
6132;BME280;3097;42.692;23.278;2023-05-23T04:37:18;94874.28;;;13.85;100.00
6132;BME280;3097;42.692;23.278;2023-05-23T04:39:47;94891.44;;;13.91;100.00
6132;BME280;3097;42.692;23.278;2023-05-23T04:42:12;94887.56;;;13.89;100.00
6132;BME280;3097;42.692;23.278;2023-05-23T04:44:38;94887.56;;;13.89;100.00
6132;BME280;3097;42.692;23.278;2023-05-23T04:47:03;94895.25;;;13.84;100.00
6132;BME280;3097;42.692;23.278;2023-05-23T04:49:30;94875.22;;;13.57;100.00
6132;BME280;3097;42.692;23.278;2023-05-23T04:51:58;94896.16;;;13.73;100.00
6132;BME280;3097;42.692;23.278;2023-05-23T04:54:23;94900.31;;;13.74;100.00
6132;BME280;3097;42.692;23.278;2023-05-23T04:56:49;94894.13;;;13.75;100.00
6132;BME280;3097;42.692;23.278;2023-05-23T04:59:14;94901.38;;;13.78;100.00
6132;BME280;3097;42.692;23.278;2023-05-23T05:01:40;94896.94;;;13.73;100.00
6132;BME280;3097;42.692;23.278;2023-05-23T05:04:05;94901.44;;;13.61;100.00
6132;BME280;3097;42.692;23.278;2023-05-23T05:06:31;94899.69;;;13.45;100.00
6132;BME280;3097;42.692;23.278;2023-05-23T05:08:56;94892.53;;;13.52;100.00
6132;BME280;3097;42.692;23.278;2023-05-23T05:11:22;94905.75;;;13.55;100.00
6132;BME280;3097;42.692;23.278;2023-05-23T05:13:50;94908.84;;;13.52;100.00
6132;BME280;3097;42.692;23.278;2023-05-23T05:16:16;94912.28;;;13.41;100.00
6132;BME280;3097;42.692;23.278;2023-05-23T05:18:41;94918.09;;;13.48;100.00
6132;BME280;3097;42.692;23.278;2023-05-23T05:21:06;94923.28;;;13.48;100.00
6132;BME280;3097;42.692;23.278;2023-05-23T05:23:32;94913.53;;;13.55;100.00
6132;BME280;3097;42.692;23.278;2023-05-23T05:25:58;94912.34;;;13.63;100.00
6132;BME280;3097;42.692;23.278;2023-05-23T05:28:24;94910.06;;;13.67;100.00
6132;BME280;3097;42.692;23.278;2023-05-23T05:30:50;94907.53;;;13.72;100.00
6132;BME280;3097;42.692;23.278;2023-05-23T05:33:18;94904.31;;;13.81;100.00
6132;BME280;3097;42.692;23.278;2023-05-23T05:35:44;94914.53;;;13.93;100.00
6132;BME280;3097;42.692;23.278;2023-05-23T05:38:10;94911.72;;;13.94;100.00
6132;BME280;3097;42.692;23.278;2023-05-23T05:40:35;94915.94;;;14.01;100.00
6132;BME280;3097;42.692;23.278;2023-05-23T05:43:01;94909.31;;;14.10;100.00
6132;BME280;3097;42.692;23.278;2023-05-23T05:45:26;94902.06;;;14.12;100.00
6132;BME280;3097;42.692;23.278;2023-05-23T05:47:52;94920.13;;;14.28;100.00
6132;BME280;3097;42.692;23.278;2023-05-23T05:50:17;94922.63;;;14.18;100.00
6132;BME280;3097;42.692;23.278;2023-05-23T05:52:44;94915.41;;;14.20;100.00
6132;BME280;3097;42.692;23.278;2023-05-23T05:55:10;94889.94;;;14.17;100.00
6132;BME280;3097;42.692;23.278;2023-05-23T05:57:37;94900.09;;;14.41;100.00
6132;BME280;3097;42.692;23.278;2023-05-23T06:00:13;94923.38;;;14.62;100.00
6132;BME280;3097;42.692;23.278;2023-05-23T06:02:40;94924.28;;;14.73;100.00
6132;BME280;3097;42.692;23.278;2023-05-23T06:05:10;94924.31;;;14.78;100.00
6132;BME280;3097;42.692;23.278;2023-05-23T06:07:41;94920.72;;;14.84;100.00
6132;BME280;3097;42.692;23.278;2023-05-23T06:10:07;94912.25;;;14.94;100.00
6132;BME280;3097;42.692;23.278;2023-05-23T06:12:36;94913.38;;;15.03;100.00
6132;BME280;3097;42.692;23.278;2023-05-23T06:15:01;94916.81;;;15.14;99.89
6132;BME280;3097;42.692;23.278;2023-05-23T06:17:27;94920.00;;;15.21;100.00
6132;BME280;3097;42.692;23.278;2023-05-23T06:19:52;94920.66;;;15.38;100.00
6132;BME280;3097;42.692;23.278;2023-05-23T06:22:18;94920.00;;;15.58;97.22
6132;BME280;3097;42.692;23.278;2023-05-23T06:24:43;94913.63;;;15.70;98.37
6132;BME280;3097;42.692;23.278;2023-05-23T06:27:09;94908.75;;;15.84;97.58
6132;BME280;3097;42.692;23.278;2023-05-23T06:29:34;94917.41;;;16.05;95.72
6132;BME280;3097;42.692;23.278;2023-05-23T06:32:01;94924.19;;;16.11;94.14
6132;BME280;3097;42.692;23.278;2023-05-23T06:34:26;94921.59;;;16.11;92.58
6132;BME280;3097;42.692;23.278;2023-05-23T06:36:52;94923.41;;;16.10;93.02
6132;BME280;3097;42.692;23.278;2023-05-23T06:39:17;94919.03;;;16.16;94.96
6132;BME280;3097;42.692;23.278;2023-05-23T06:41:42;94917.03;;;16.43;96.70
6132;BME280;3097;42.692;23.278;2023-05-23T06:44:08;94913.75;;;16.83;94.31
6132;BME280;3097;42.692;23.278;2023-05-23T06:46:33;94907.50;;;17.35;93.40
6132;BME280;3097;42.692;23.278;2023-05-23T06:48:59;94913.88;;;18.18;92.75
6132;BME280;3097;42.692;23.278;2023-05-23T06:51:24;94882.41;;;18.44;84.19
6132;BME280;3097;42.692;23.278;2023-05-23T06:53:50;94914.00;;;18.91;84.99
6132;BME280;3097;42.692;23.278;2023-05-23T06:56:15;94895.94;;;19.29;84.76
6132;BME280;3097;42.692;23.278;2023-05-23T06:58:41;94907.44;;;19.86;83.61
6132;BME280;3097;42.692;23.278;2023-05-23T07:01:06;94906.06;;;20.17;74.45
6132;BME280;3097;42.692;23.278;2023-05-23T07:03:31;94886.75;;;20.13;77.44
6132;BME280;3097;42.692;23.278;2023-05-23T07:05:57;94907.84;;;20.22;72.67
6132;BME280;3097;42.692;23.278;2023-05-23T07:08:23;94895.94;;;20.53;77.37
6132;BME280;3097;42.692;23.278;2023-05-23T07:10:48;94878.00;;;20.98;78.29
6132;BME280;3097;42.692;23.278;2023-05-23T07:13:13;94893.53;;;21.59;72.31
6132;BME280;3097;42.692;23.278;2023-05-23T07:15:39;94886.00;;;21.98;70.56
6132;BME280;3097;42.692;23.278;2023-05-23T07:18:05;94879.63;;;22.54;72.55
6132;BME280;3097;42.692;23.278;2023-05-23T07:20:32;94844.41;;;22.42;66.40
6132;BME280;3097;42.692;23.278;2023-05-23T07:22:58;94882.22;;;22.32;64.57
6132;BME280;3097;42.692;23.278;2023-05-23T07:25:24;94885.81;;;21.95;67.16
6132;BME280;3097;42.692;23.278;2023-05-23T07:27:50;94876.56;;;22.11;66.57
6132;BME280;3097;42.692;23.278;2023-05-23T07:30:19;94874.94;;;22.02;67.47
6132;BME280;3097;42.692;23.278;2023-05-23T07:32:46;94871.78;;;21.86;67.96
6132;BME280;3097;42.692;23.278;2023-05-23T07:35:12;94866.16;;;22.20;66.61
6132;BME280;3097;42.692;23.278;2023-05-23T07:37:38;94846.38;;;22.36;66.56
6132;BME280;3097;42.692;23.278;2023-05-23T07:40:04;94866.31;;;22.87;64.84
6132;BME280;3097;42.692;23.278;2023-05-23T07:42:29;94851.63;;;23.08;66.20
6132;BME280;3097;42.692;23.278;2023-05-23T07:44:55;94852.53;;;23.57;68.33
6132;BME280;3097;42.692;23.278;2023-05-23T07:47:20;94853.38;;;23.74;62.70
6132;BME280;3097;42.692;23.278;2023-05-23T07:49:46;94862.09;;;23.92;60.58
6132;BME280;3097;42.692;23.278;2023-05-23T07:52:12;94847.09;;;24.01;61.89
6132;BME280;3097;42.692;23.278;2023-05-23T07:54:37;94859.47;;;23.92;62.22
6132;BME280;3097;42.692;23.278;2023-05-23T07:57:03;94859.31;;;23.88;62.50
6132;BME280;3097;42.692;23.278;2023-05-23T07:59:28;94852.50;;;23.96;62.29
6132;BME280;3097;42.692;23.278;2023-05-23T08:01:54;94857.41;;;23.80;60.17
6132;BME280;3097;42.692;23.278;2023-05-23T08:04:20;94840.22;;;23.43;61.99
6132;BME280;3097;42.692;23.278;2023-05-23T08:06:45;94845.91;;;23.37;61.82
6132;BME280;3097;42.692;23.278;2023-05-23T08:09:11;94850.94;;;23.25;62.83
6132;BME280;3097;42.692;23.278;2023-05-23T08:11:37;94852.13;;;23.19;63.33
6132;BME280;3097;42.692;23.278;2023-05-23T08:14:02;94850.72;;;23.43;63.35
6132;BME280;3097;42.692;23.278;2023-05-23T08:16:28;94852.59;;;23.43;62.38
6132;BME280;3097;42.692;23.278;2023-05-23T08:18:53;94846.63;;;23.29;64.52
6132;BME280;3097;42.692;23.278;2023-05-23T08:21:19;94842.19;;;23.60;65.24
6132;BME280;3097;42.692;23.278;2023-05-23T08:23:44;94851.56;;;23.92;63.63
6132;BME280;3097;42.692;23.278;2023-05-23T08:26:09;94849.09;;;23.96;63.65
6132;BME280;3097;42.692;23.278;2023-05-23T08:28:35;94848.81;;;23.97;62.14
6132;BME280;3097;42.692;23.278;2023-05-23T08:31:00;94851.63;;;24.18;61.86
6132;BME280;3097;42.692;23.278;2023-05-23T08:33:26;94853.84;;;24.24;60.36
6132;BME280;3097;42.692;23.278;2023-05-23T08:35:51;94841.69;;;24.06;59.59
6132;BME280;3097;42.692;23.278;2023-05-23T08:38:16;94839.34;;;23.96;59.35
6132;BME280;3097;42.692;23.278;2023-05-23T08:40:49;94839.28;;;23.79;59.94
6132;BME280;3097;42.692;23.278;2023-05-23T08:43:18;94840.25;;;23.21;62.26
6132;BME280;3097;42.692;23.278;2023-05-23T08:45:44;94836.91;;;23.07;63.85
6132;BME280;3097;42.692;23.278;2023-05-23T08:48:12;94829.38;;;23.14;66.18
6132;BME280;3097;42.692;23.278;2023-05-23T08:50:42;94845.63;;;22.94;63.24
6132;BME280;3097;42.692;23.278;2023-05-23T08:53:08;94827.91;;;22.99;67.24
6132;BME280;3097;42.692;23.278;2023-05-23T08:55:36;94835.53;;;23.40;65.79
6132;BME280;3097;42.692;23.278;2023-05-23T08:58:02;94814.38;;;23.45;62.70
6132;BME280;3097;42.692;23.278;2023-05-23T09:00:28;94833.66;;;23.63;61.18
6132;BME280;3097;42.692;23.278;2023-05-23T09:02:54;94832.53;;;23.56;61.50
6132;BME280;3097;42.692;23.278;2023-05-23T09:05:21;94822.97;;;23.60;63.26
6132;BME280;3097;42.692;23.278;2023-05-23T09:07:47;94821.59;;;23.71;61.32
6132;BME280;3097;42.692;23.278;2023-05-23T09:10:14;94822.69;;;23.70;59.85
6132;BME280;3097;42.692;23.278;2023-05-23T09:12:44;94820.50;;;23.63;60.56
6132;BME280;3097;42.692;23.278;2023-05-23T09:15:10;94825.66;;;23.46;57.69
6132;BME280;3097;42.692;23.278;2023-05-23T09:17:36;94823.84;;;23.24;54.41
6132;BME280;3097;42.692;23.278;2023-05-23T09:20:14;94820.13;;;23.25;59.86
6132;BME280;3097;42.692;23.278;2023-05-23T09:22:45;94819.41;;;23.33;56.81
6132;BME280;3097;42.692;23.278;2023-05-23T09:25:11;94821.34;;;23.19;55.52
6132;BME280;3097;42.692;23.278;2023-05-23T09:27:36;94819.59;;;23.06;54.59
6132;BME280;3097;42.692;23.278;2023-05-23T09:30:06;94819.97;;;23.22;55.93
6132;BME280;3097;42.692;23.278;2023-05-23T09:32:32;94813.28;;;23.15;52.79
6132;BME280;3097;42.692;23.278;2023-05-23T09:35:04;94807.56;;;23.13;53.72
6132;BME280;3097;42.692;23.278;2023-05-23T09:37:35;94780.31;;;22.87;53.91
6132;BME280;3097;42.692;23.278;2023-05-23T09:40:11;94815.88;;;23.07;54.11
6132;BME280;3097;42.692;23.278;2023-05-23T09:42:45;94808.63;;;23.12;54.26
6132;BME280;3097;42.692;23.278;2023-05-23T09:45:15;94800.91;;;23.16;54.86
6132;BME280;3097;42.692;23.278;2023-05-23T09:47:51;94799.06;;;23.16;54.72
6132;BME280;3097;42.692;23.278;2023-05-23T09:50:17;94798.16;;;23.21;54.01
6132;BME280;3097;42.692;23.278;2023-05-23T09:52:42;94792.28;;;23.24;53.46
6132;BME280;3097;42.692;23.278;2023-05-23T09:55:08;94790.69;;;23.45;55.41
6132;BME280;3097;42.692;23.278;2023-05-23T09:57:34;94788.03;;;23.37;52.20
6132;BME280;3097;42.692;23.278;2023-05-23T10:00:02;94789.66;;;23.24;52.74
6132;BME280;3097;42.692;23.278;2023-05-23T10:05:33;94610.00;;;21.91;49.91
6132;BME280;3097;42.692;23.278;2023-05-23T10:08:01;94783.41;;;23.11;51.97
6132;BME280;3097;42.692;23.278;2023-05-23T10:10:30;94777.56;;;23.14;52.79
6132;BME280;3097;42.692;23.278;2023-05-23T10:12:57;94785.59;;;23.18;50.38
6132;BME280;3097;42.692;23.278;2023-05-23T10:15:26;94787.53;;;23.04;50.71
6132;BME280;3097;42.692;23.278;2023-05-23T10:20:30;94781.22;;;23.05;50.52
6132;BME280;3097;42.692;23.278;2023-05-23T10:22:58;94776.72;;;23.05;51.73
6132;BME280;3097;42.692;23.278;2023-05-23T10:25:24;94783.13;;;23.13;48.21
6132;BME280;3097;42.692;23.278;2023-05-23T10:27:54;94787.78;;;22.94;48.01
6132;BME280;3097;42.692;23.278;2023-05-23T10:30:27;94776.13;;;22.86;48.82
6132;BME280;3097;42.692;23.278;2023-05-23T10:32:57;94758.41;;;22.92;48.70
6132;BME280;3097;42.692;23.278;2023-05-23T10:35:59;94772.72;;;22.86;48.90
6132;BME280;3097;42.692;23.278;2023-05-23T10:38:37;94761.94;;;22.87;48.87
6132;BME280;3097;42.692;23.278;2023-05-23T10:41:15;94767.25;;;22.73;46.55
6132;BME280;3097;42.692;23.278;2023-05-23T10:43:54;94750.75;;;22.59;47.43
6132;BME280;3097;42.692;23.278;2023-05-23T10:46:21;94760.41;;;22.72;48.99
6132;BME280;3097;42.692;23.278;2023-05-23T10:48:47;94757.72;;;22.77;47.30
6132;BME280;3097;42.692;23.278;2023-05-23T10:51:13;94759.78;;;22.89;47.22
6132;BME280;3097;42.692;23.278;2023-05-23T10:53:41;94756.22;;;22.85;47.67
6132;BME280;3097;42.692;23.278;2023-05-23T10:56:08;94744.19;;;22.93;46.66
6132;BME280;3097;42.692;23.278;2023-05-23T10:58:36;94758.13;;;23.02;46.27
6132;BME280;3097;42.692;23.278;2023-05-23T11:01:07;94751.31;;;23.01;45.65
6132;BME280;3097;42.692;23.278;2023-05-23T11:06:51;94754.81;;;22.88;45.39
6132;BME280;3097;42.692;23.278;2023-05-23T11:09:17;94758.47;;;22.78;44.79
6132;BME280;3097;42.692;23.278;2023-05-23T11:19:37;94744.09;;;22.75;44.49
6132;BME280;3097;42.692;23.278;2023-05-23T11:22:07;94739.53;;;22.67;45.13
6132;BME280;3097;42.692;23.278;2023-05-23T11:24:54;94740.47;;;22.49;46.05
6132;BME280;3097;42.692;23.278;2023-05-23T11:27:44;94735.91;;;22.55;45.53
6132;BME280;3097;42.692;23.278;2023-05-23T11:30:12;94735.34;;;22.44;46.27
6132;BME280;3097;42.692;23.278;2023-05-23T11:32:38;94697.16;;;22.16;45.95
6132;BME280;3097;42.692;23.278;2023-05-23T11:35:05;94732.16;;;22.33;48.17
6132;BME280;3097;42.692;23.278;2023-05-23T11:37:31;94724.53;;;22.46;47.16
6132;BME280;3097;42.692;23.278;2023-05-23T11:39:57;94727.59;;;22.61;46.88
6132;BME280;3097;42.692;23.278;2023-05-23T11:42:23;94713.19;;;22.59;46.39
6132;BME280;3097;42.692;23.278;2023-05-23T11:44:50;94717.66;;;22.81;46.04
6132;BME280;3097;42.692;23.278;2023-05-23T11:47:16;94719.78;;;23.01;46.05
6132;BME280;3097;42.692;23.278;2023-05-23T11:49:44;94715.28;;;23.01;46.00
6132;BME280;3097;42.692;23.278;2023-05-23T11:52:11;94716.41;;;23.09;44.94
6132;BME280;3097;42.692;23.278;2023-05-23T11:54:39;94640.81;;;22.53;45.89
6132;BME280;3097;42.692;23.278;2023-05-23T11:57:05;94709.13;;;23.06;47.58
6132;BME280;3097;42.692;23.278;2023-05-23T11:59:30;94701.06;;;23.02;45.15
6132;BME280;3097;42.692;23.278;2023-05-23T12:01:56;94716.06;;;23.02;45.03
6132;BME280;3097;42.692;23.278;2023-05-23T12:04:21;94709.72;;;23.03;45.56
6132;BME280;3097;42.692;23.278;2023-05-23T12:06:50;94711.44;;;22.99;46.14
6132;BME280;3097;42.692;23.278;2023-05-23T12:09:16;94701.22;;;22.97;46.17
6132;BME280;3097;42.692;23.278;2023-05-23T12:11:42;94702.47;;;23.00;46.54
6132;BME280;3097;42.692;23.278;2023-05-23T12:14:11;94698.41;;;22.94;46.47
6132;BME280;3097;42.692;23.278;2023-05-23T12:16:38;94678.00;;;22.91;46.36
6132;BME280;3097;42.692;23.278;2023-05-23T12:19:04;94685.72;;;22.96;47.04
6132;BME280;3097;42.692;23.278;2023-05-23T12:21:49;94684.91;;;22.87;46.43
6132;BME280;3097;42.692;23.278;2023-05-23T12:26:53;94695.63;;;22.68;44.46
6132;BME280;3097;42.692;23.278;2023-05-23T12:31:57;94683.72;;;22.70;45.01
6132;BME280;3097;42.692;23.278;2023-05-23T12:34:22;94672.63;;;22.73;44.46
6132;BME280;3097;42.692;23.278;2023-05-23T12:36:48;94670.19;;;22.77;44.96
6132;BME280;3097;42.692;23.278;2023-05-23T12:39:15;94636.41;;;22.70;45.18
6132;BME280;3097;42.692;23.278;2023-05-23T12:41:41;94658.81;;;22.90;45.23
6132;BME280;3097;42.692;23.278;2023-05-23T12:44:08;94650.19;;;22.98;45.35
6132;BME280;3097;42.692;23.278;2023-05-23T12:46:34;94662.44;;;23.11;45.48
6132;BME280;3097;42.692;23.278;2023-05-23T12:48:59;94661.22;;;23.17;45.61
6132;BME280;3097;42.692;23.278;2023-05-23T12:51:25;94658.16;;;23.33;46.12
6132;BME280;3097;42.692;23.278;2023-05-23T12:53:50;94659.72;;;23.34;44.64
6132;BME280;3097;42.692;23.278;2023-05-23T12:56:16;94664.81;;;23.22;43.80
6132;BME280;3097;42.692;23.278;2023-05-23T12:58:41;94648.84;;;23.18;42.14
6132;BME280;3097;42.692;23.278;2023-05-23T13:01:08;94654.25;;;23.13;41.88
6132;BME280;3097;42.692;23.278;2023-05-23T13:03:33;94640.78;;;23.23;43.43
6132;BME280;3097;42.692;23.278;2023-05-23T13:05:59;94646.72;;;23.29;42.19
6132;BME280;3097;42.692;23.278;2023-05-23T13:08:25;94650.41;;;23.28;42.73
6132;BME280;3097;42.692;23.278;2023-05-23T13:10:54;94643.16;;;23.33;43.34
6132;BME280;3097;42.692;23.278;2023-05-23T13:13:20;94642.09;;;23.43;40.90
6132;BME280;3097;42.692;23.278;2023-05-23T13:15:46;94643.94;;;23.34;40.41
6132;BME280;3097;42.692;23.278;2023-05-23T13:18:11;94647.50;;;23.29;41.09
6132;BME280;3097;42.692;23.278;2023-05-23T13:20:37;94642.69;;;23.31;40.77
6132;BME280;3097;42.692;23.278;2023-05-23T13:23:03;94638.66;;;23.34;39.50
6132;BME280;3097;42.692;23.278;2023-05-23T13:25:28;94639.63;;;23.38;39.93
6132;BME280;3097;42.692;23.278;2023-05-23T13:27:54;94644.13;;;23.54;38.75
6132;BME280;3097;42.692;23.278;2023-05-23T13:30:21;94642.44;;;23.50;39.95
6132;BME280;3097;42.692;23.278;2023-05-23T13:32:47;94638.66;;;23.34;39.74